createdAt,value
2019-03-20T00:02:00.385Z,3.02
2019-03-20T00:05:01.823Z,3.37
2019-03-20T00:08:03.277Z,3.15
2019-03-20T00:11:04.995Z,2.90
2019-03-20T00:14:06.536Z,3.12
2019-03-20T00:17:07.962Z,3.15
2019-03-20T00:20:10.286Z,2.70
2019-03-20T00:23:11.730Z,2.72
2019-03-20T00:26:13.232Z,3.02
2019-03-20T00:29:14.685Z,2.77
2019-03-20T00:32:16.179Z,3.25
2019-03-20T00:35:17.531Z,2.50
2019-03-20T00:38:18.992Z,3.40
2019-03-20T00:41:20.506Z,3.10
2019-03-20T00:44:21.849Z,3.00
2019-03-20T00:47:24.069Z,2.77
2019-03-20T00:50:25.427Z,2.72
2019-03-20T00:53:26.880Z,2.75
2019-03-20T00:56:29.336Z,2.92
2019-03-20T00:59:30.722Z,2.77
2019-03-20T01:02:32.101Z,2.80
2019-03-20T01:05:33.470Z,2.65
2019-03-20T01:08:34.827Z,2.65
2019-03-20T01:11:36.209Z,2.70
2019-03-20T01:14:37.601Z,2.92
2019-03-20T01:17:39.017Z,2.47
2019-03-20T01:20:40.480Z,2.70
2019-03-20T01:23:41.868Z,2.80
2019-03-20T01:26:43.308Z,2.80
2019-03-20T01:29:44.660Z,2.72
2019-03-20T01:32:46.054Z,2.60
2019-03-20T01:35:47.427Z,2.55
2019-03-20T01:38:48.787Z,2.52
2019-03-20T01:41:50.197Z,3.08
2019-03-20T01:44:51.572Z,2.50
2019-03-20T01:47:52.963Z,2.60
2019-03-20T01:50:54.356Z,2.37
2019-03-20T01:53:55.727Z,2.50
2019-03-20T01:56:57.115Z,2.72
2019-03-20T01:59:58.480Z,2.62
2019-03-20T02:02:59.840Z,2.33
2019-03-20T02:06:01.209Z,2.87
2019-03-20T02:09:02.662Z,2.35
2019-03-20T02:12:05.646Z,2.85
2019-03-20T02:15:10.754Z,3.05
2019-03-20T02:18:12.297Z,2.40
2019-03-20T02:21:13.746Z,2.85
2019-03-20T02:24:15.129Z,2.15
2019-03-20T02:27:16.505Z,2.70
2019-03-20T02:30:18.259Z,2.42
2019-03-20T02:33:19.639Z,2.60
2019-03-20T02:36:20.997Z,2.60
2019-03-20T02:39:22.365Z,2.70
2019-03-20T02:42:23.825Z,2.47
2019-03-20T02:45:25.257Z,2.17
2019-03-20T02:48:26.686Z,2.72
2019-03-20T02:51:28.060Z,2.50
2019-03-20T02:54:29.429Z,2.33
2019-03-20T02:57:30.805Z,2.80
2019-03-20T03:00:33.317Z,2.20
2019-03-20T03:03:34.772Z,2.22
2019-03-20T03:06:36.227Z,2.60
2019-03-20T03:09:37.634Z,2.40
2019-03-20T03:12:39.106Z,2.33
2019-03-20T03:15:40.506Z,2.22
2019-03-20T03:18:41.895Z,2.27
2019-03-20T03:21:44.321Z,2.40
2019-03-20T03:24:45.673Z,2.40
2019-03-20T03:27:47.042Z,2.67
2019-03-20T03:30:48.397Z,2.30
2019-03-20T03:33:49.787Z,2.90
2019-03-20T03:36:51.151Z,2.40
2019-03-20T03:39:52.466Z,2.50
2019-03-20T03:42:53.795Z,2.40
2019-03-20T03:45:55.133Z,2.50
2019-03-20T03:48:56.507Z,2.43
2019-03-20T03:51:57.832Z,2.37
2019-03-20T03:54:59.208Z,2.72
2019-03-20T03:58:00.584Z,2.10
2019-03-20T04:01:01.924Z,2.57
2019-03-20T04:04:03.289Z,2.30
2019-03-20T04:07:04.639Z,2.50
2019-03-20T04:10:07.313Z,2.60
2019-03-20T04:13:08.684Z,2.20
2019-03-20T04:16:13.054Z,2.10
2019-03-20T04:19:14.401Z,2.43
2019-03-20T04:22:15.758Z,2.10
2019-03-20T04:25:17.320Z,2.27
2019-03-20T04:28:18.665Z,2.30
2019-03-20T04:31:20.007Z,2.50
2019-03-20T04:34:22.420Z,2.10
2019-03-20T04:37:23.763Z,2.03
2019-03-20T04:40:25.084Z,2.37
2019-03-20T04:43:26.501Z,2.20
2019-03-20T04:46:27.846Z,2.30
2019-03-20T04:49:29.221Z,2.50
2019-03-20T04:52:30.558Z,2.20
2019-03-20T04:55:31.947Z,2.10
2019-03-20T04:58:33.331Z,2.10
2019-03-20T05:01:34.670Z,2.27
2019-03-20T05:04:36.011Z,2.17
2019-03-20T05:07:37.369Z,2.10
2019-03-20T05:10:38.732Z,2.00
2019-03-20T05:13:40.064Z,2.67
2019-03-20T05:16:41.429Z,2.33
2019-03-20T05:19:43.852Z,1.97
2019-03-20T05:22:45.332Z,1.80
2019-03-20T05:25:46.663Z,1.90
2019-03-20T05:28:48.054Z,1.90
2019-03-20T05:31:49.397Z,2.00
2019-03-20T05:34:50.734Z,2.00
2019-03-20T05:37:52.095Z,2.17
2019-03-20T05:40:53.432Z,2.17
2019-03-20T05:43:54.844Z,2.17
2019-03-20T05:46:56.269Z,1.93
2019-03-20T05:49:57.652Z,2.50
2019-03-20T05:52:58.998Z,2.10
2019-03-20T05:56:00.431Z,1.80
2019-03-20T05:59:01.780Z,2.27
2019-03-20T06:02:03.108Z,2.00
2019-03-20T06:05:05.009Z,2.17
2019-03-20T06:08:06.442Z,2.10
2019-03-20T06:11:07.797Z,2.07
2019-03-20T06:14:09.139Z,2.27
2019-03-20T06:17:10.500Z,2.40
2019-03-20T06:20:11.950Z,2.47
2019-03-20T06:23:13.291Z,2.33
2019-03-20T06:26:14.740Z,2.37
2019-03-20T06:29:16.230Z,2.10
2019-03-20T06:32:17.563Z,2.50
2019-03-20T06:35:18.914Z,2.20
2019-03-20T06:38:20.255Z,2.60
2019-03-20T06:41:21.594Z,2.97
2019-03-20T06:44:22.935Z,2.30
2019-03-20T06:47:24.259Z,2.63
2019-03-20T06:50:25.612Z,2.40
2019-03-20T06:53:26.960Z,2.40
2019-03-20T06:56:29.552Z,2.13
2019-03-20T07:00:33.846Z,2.47
2019-03-20T07:04:10.027Z,2.27
2019-03-20T07:07:30.124Z,2.20
2019-03-20T07:11:11.876Z,2.23
2019-03-20T07:14:13.239Z,2.60
2019-03-20T07:17:14.597Z,2.50
2019-03-20T07:20:16.033Z,2.27
2019-03-20T07:23:17.404Z,2.40
2019-03-20T07:26:18.751Z,2.57
2019-03-20T07:29:20.117Z,2.60
2019-03-20T07:32:21.476Z,2.33
2019-03-20T07:35:22.828Z,2.50
2019-03-20T07:38:24.470Z,2.40
2019-03-20T07:41:25.922Z,2.77
2019-03-20T07:44:27.261Z,2.20
2019-03-20T07:47:28.689Z,2.53
2019-03-20T07:50:30.043Z,2.53
2019-03-20T07:53:31.481Z,2.50
2019-03-20T07:56:32.899Z,2.47
2019-03-20T07:59:34.242Z,2.23
2019-03-20T08:02:35.623Z,2.42
2019-03-20T08:05:37.096Z,3.03
2019-03-20T08:08:38.457Z,2.52
2019-03-20T08:11:39.870Z,2.20
2019-03-20T08:14:41.317Z,2.25
2019-03-20T08:17:42.737Z,2.50
2019-03-20T08:20:45.291Z,2.22
2019-03-20T08:23:46.684Z,2.40
2019-03-20T08:26:48.098Z,2.85
2019-03-20T08:30:19.142Z,2.27
2019-03-20T08:33:20.693Z,2.60
2019-03-20T08:36:22.075Z,2.47
2019-03-20T08:39:23.440Z,3.12
2019-03-20T08:42:24.841Z,2.22
2019-03-20T08:45:26.304Z,2.75
2019-03-20T08:48:27.784Z,2.00
2019-03-20T08:51:29.202Z,2.47
2019-03-20T08:54:30.590Z,2.27
2019-03-20T08:57:31.986Z,2.15
2019-03-20T09:00:34.472Z,2.10
2019-03-20T09:03:36.061Z,2.37
2019-03-20T09:06:37.483Z,2.22
2019-03-20T09:09:38.962Z,2.30
2019-03-20T09:12:40.331Z,2.40
2019-03-20T09:15:41.712Z,2.30
2019-03-20T09:18:43.217Z,2.35
2019-03-20T09:21:44.647Z,2.10
2019-03-20T09:24:46.047Z,2.33
2019-03-20T09:27:47.414Z,2.52
2019-03-20T09:30:48.871Z,2.30
2019-03-20T09:33:50.370Z,2.30
2019-03-20T09:36:51.829Z,2.00
2019-03-20T09:39:53.230Z,2.00
2019-03-20T09:42:54.668Z,2.08
2019-03-20T09:45:57.246Z,2.25
2019-03-20T09:48:59.681Z,2.10
2019-03-20T09:52:01.126Z,2.02
2019-03-20T09:55:02.519Z,2.35
2019-03-20T09:58:11.425Z,2.33
2019-03-20T10:01:07.404Z,2.00
2019-03-20T10:04:08.785Z,2.15
2019-03-20T10:07:10.173Z,1.72
2019-03-20T10:10:13.976Z,2.17
2019-03-20T10:13:15.397Z,2.30
2019-03-20T10:16:16.869Z,1.80
2019-03-20T10:19:18.393Z,2.02
2019-03-20T10:22:19.861Z,2.05
2019-03-20T10:25:21.274Z,1.90
2019-03-20T10:28:22.743Z,2.30
2019-03-20T10:31:24.165Z,1.80
2019-03-20T10:34:39.653Z,2.25
2019-03-20T10:37:40.125Z,1.90
2019-03-20T10:40:41.499Z,2.12
2019-03-20T10:43:42.941Z,2.00
2019-03-20T10:46:44.371Z,2.08
2019-03-20T10:49:45.855Z,2.25
2019-03-20T10:52:47.269Z,2.12
2019-03-20T10:55:51.856Z,2.08
2019-03-20T10:58:53.205Z,2.67
2019-03-20T11:01:54.731Z,2.10
2019-03-20T11:04:56.169Z,2.75
2019-03-20T11:07:57.612Z,2.15
2019-03-20T11:10:59.120Z,2.30
2019-03-20T11:14:00.629Z,2.20
2019-03-20T11:17:02.118Z,1.90
2019-03-20T11:20:03.543Z,2.30
2019-03-20T11:23:05.036Z,2.50
2019-03-20T11:26:06.659Z,2.40
2019-03-20T11:29:08.134Z,2.87
2019-03-20T11:32:09.572Z,2.58
2019-03-20T11:35:11.006Z,2.83
2019-03-20T11:38:15.624Z,2.20
2019-03-20T11:41:18.251Z,2.70
2019-03-20T11:44:19.633Z,2.25
2019-03-20T11:47:21.172Z,2.35
2019-03-20T11:50:26.548Z,2.10
2019-03-20T11:53:28.962Z,2.35
2019-03-20T11:56:30.389Z,2.40
2019-03-20T11:59:31.893Z,2.70
2019-03-20T12:02:33.321Z,2.17
2019-03-20T12:05:34.763Z,2.62
2019-03-20T12:08:37.862Z,2.10
2019-03-20T12:11:45.903Z,2.10
2019-03-20T12:14:42.448Z,2.27
2019-03-20T12:17:43.865Z,2.47
2019-03-20T12:20:45.295Z,2.30
2019-03-20T12:23:46.713Z,2.75
2019-03-20T12:26:48.204Z,2.60
2019-03-20T12:29:49.659Z,2.37
2019-03-20T12:32:51.074Z,2.33
2019-03-20T12:35:52.497Z,2.70
2019-03-20T12:38:53.921Z,2.12
2019-03-20T12:41:55.337Z,2.40
2019-03-20T12:44:56.761Z,2.08
2019-03-20T12:47:58.203Z,2.60
2019-03-20T12:50:59.688Z,2.10
2019-03-20T12:54:01.109Z,2.00
2019-03-20T12:57:02.590Z,2.15
2019-03-20T13:00:04.893Z,2.12
2019-03-20T13:03:06.487Z,2.30
2019-03-20T13:06:07.914Z,2.67
2019-03-20T13:09:10.141Z,2.22
2019-03-20T13:12:11.587Z,2.35
2019-03-20T13:15:16.725Z,2.33
2019-03-20T13:18:18.172Z,2.60
2019-03-20T13:21:19.653Z,2.15
2019-03-20T13:24:21.155Z,2.12
2019-03-20T13:27:22.566Z,2.50
2019-03-20T13:30:27.701Z,2.17
2019-03-20T13:33:29.119Z,2.00
2019-03-20T13:36:30.563Z,2.02
2019-03-20T13:39:32.006Z,2.30
2019-03-20T13:42:33.425Z,2.08
2019-03-20T13:45:34.981Z,1.75
2019-03-20T13:48:36.393Z,2.10
2019-03-20T13:51:37.853Z,2.00
2019-03-20T13:54:39.246Z,2.10
2019-03-20T13:57:40.693Z,2.20
2019-03-20T14:00:42.104Z,2.17
2019-03-20T14:03:43.591Z,2.05
2019-03-20T14:06:45.083Z,1.92
2019-03-20T14:09:46.491Z,1.82
2019-03-20T14:12:47.916Z,1.65
2019-03-20T14:15:49.367Z,2.02
2019-03-20T14:18:50.849Z,1.80
2019-03-20T14:21:52.259Z,1.60
2019-03-20T14:24:53.702Z,1.77
2019-03-20T14:27:55.114Z,1.57
2019-03-20T14:30:56.565Z,1.80
2019-03-20T14:34:01.103Z,1.85
2019-03-20T14:37:02.530Z,1.82
2019-03-20T14:40:04.006Z,1.72
2019-03-20T14:43:05.883Z,1.70
2019-03-20T14:46:07.369Z,1.40
2019-03-20T14:49:08.825Z,1.60
2019-03-20T14:52:10.249Z,2.33
2019-03-20T14:55:12.072Z,1.98
2019-03-20T14:58:13.498Z,1.80
2019-03-20T15:01:14.980Z,2.15
2019-03-20T15:04:17.440Z,1.90
2019-03-20T15:07:18.928Z,2.00
2019-03-20T15:10:21.516Z,2.00
2019-03-20T15:13:22.937Z,2.10
2019-03-20T15:16:24.354Z,1.77
2019-03-20T15:19:25.826Z,1.67
2019-03-20T15:22:27.297Z,1.32
2019-03-20T15:25:28.744Z,1.50
2019-03-20T15:28:30.204Z,2.17
2019-03-20T15:31:32.695Z,1.90
2019-03-20T15:34:34.153Z,1.62
2019-03-20T15:37:35.605Z,1.92
2019-03-20T15:40:37.304Z,1.90
2019-03-20T15:43:38.735Z,2.58
2019-03-20T15:46:40.158Z,2.90
2019-03-20T15:49:41.673Z,2.30
2019-03-20T15:52:43.102Z,1.80
2019-03-20T15:55:44.507Z,2.22
2019-03-20T15:58:45.947Z,2.20
2019-03-20T16:01:47.359Z,2.25
2019-03-20T16:04:48.824Z,1.67
2019-03-20T16:07:50.244Z,1.85
2019-03-20T16:10:51.692Z,2.02
2019-03-20T16:13:53.117Z,2.42
2019-03-20T16:16:55.652Z,2.10
2019-03-20T16:19:57.080Z,2.00
2019-03-20T16:22:58.510Z,2.37
2019-03-20T16:26:00.003Z,2.72
2019-03-20T16:29:01.420Z,2.75
2019-03-20T16:32:02.858Z,1.92
2019-03-20T16:35:04.434Z,2.35
2019-03-20T16:38:07.084Z,1.90
2019-03-20T16:41:16.359Z,1.95
2019-03-20T16:44:11.723Z,1.77
2019-03-20T16:47:13.181Z,2.20
2019-03-20T16:50:15.383Z,1.92
2019-03-20T16:53:16.810Z,1.98
2019-03-20T16:56:19.322Z,1.90
2019-03-20T16:59:20.824Z,2.00
2019-03-20T17:02:22.243Z,1.92
2019-03-20T17:05:24.053Z,1.75
2019-03-20T17:08:25.562Z,2.00
2019-03-20T17:11:37.934Z,2.00
2019-03-20T17:14:30.137Z,1.85
2019-03-20T17:17:31.593Z,1.60
2019-03-20T17:20:33.039Z,1.60
2019-03-20T17:23:34.458Z,1.65
2019-03-20T17:26:35.912Z,1.62
2019-03-20T17:29:37.337Z,2.35
2019-03-20T17:32:38.832Z,1.80
2019-03-20T17:35:40.365Z,1.87
2019-03-20T17:38:41.859Z,1.60
2019-03-20T17:41:43.300Z,1.87
2019-03-20T17:44:44.717Z,2.02
2019-03-20T17:47:46.307Z,1.98
2019-03-20T17:50:47.750Z,1.47
2019-03-20T17:53:50.252Z,1.42
2019-03-20T17:56:51.781Z,1.70
2019-03-20T17:59:53.235Z,1.90
2019-03-20T18:02:54.669Z,1.70
2019-03-20T18:05:56.127Z,1.40
2019-03-20T18:08:57.559Z,1.80
2019-03-20T18:11:59.079Z,1.70
2019-03-20T18:15:00.480Z,1.70
2019-03-20T18:18:02.476Z,1.60
2019-03-20T18:21:03.985Z,1.80
2019-03-20T18:24:05.627Z,1.67
2019-03-20T18:27:07.139Z,1.55
2019-03-20T18:30:19.198Z,1.30
2019-03-20T18:33:20.645Z,1.50
2019-03-20T18:36:22.127Z,1.67
2019-03-20T18:39:23.570Z,1.77
2019-03-20T18:42:25.034Z,1.50
2019-03-20T18:45:26.593Z,1.80
2019-03-20T18:48:28.088Z,1.47
2019-03-20T18:51:29.518Z,1.40
2019-03-20T18:54:30.947Z,1.47
2019-03-20T18:57:32.366Z,1.82
2019-03-20T19:00:33.926Z,1.70
2019-03-20T19:03:37.160Z,1.45
2019-03-20T19:06:38.617Z,1.60
2019-03-20T19:09:40.129Z,1.57
2019-03-20T19:12:41.601Z,1.67
2019-03-20T19:15:43.120Z,1.70
2019-03-20T19:18:44.597Z,2.00
2019-03-20T19:21:46.113Z,2.10
2019-03-20T19:24:47.540Z,2.00
2019-03-20T19:27:49.008Z,1.85
2019-03-20T19:30:50.473Z,2.15
2019-03-20T19:33:51.891Z,2.05
2019-03-20T19:36:53.402Z,2.00
2019-03-20T19:39:54.856Z,1.85
2019-03-20T19:42:56.314Z,1.87
2019-03-20T19:45:57.737Z,2.08
2019-03-20T19:48:59.192Z,2.10
2019-03-20T19:52:00.170Z,2.10
2019-03-20T19:55:01.614Z,2.08
2019-03-20T19:58:03.092Z,2.45
2019-03-20T20:01:04.701Z,2.12
2019-03-20T20:04:07.122Z,2.30
2019-03-20T20:07:08.624Z,2.30
2019-03-20T20:10:10.826Z,2.35
2019-03-20T20:13:12.318Z,1.98
2019-03-20T20:16:13.781Z,2.00
2019-03-20T20:19:15.263Z,2.22
2019-03-20T20:22:16.663Z,2.17
2019-03-20T20:25:18.151Z,2.17
2019-03-20T20:28:19.645Z,1.77
2019-03-20T20:31:22.120Z,2.08
2019-03-20T20:34:23.610Z,2.30
2019-03-20T20:37:25.037Z,2.20
2019-03-20T20:40:26.521Z,2.30
2019-03-20T20:43:28.003Z,2.00
2019-03-20T20:46:29.487Z,2.25
2019-03-20T20:49:32.241Z,1.80
2019-03-20T20:52:33.770Z,1.98
2019-03-20T20:55:35.243Z,2.05
2019-03-20T20:58:36.696Z,2.27
2019-03-20T21:01:38.202Z,1.87
2019-03-20T21:04:39.616Z,1.98
2019-03-20T21:07:41.044Z,1.90
2019-03-20T21:10:42.546Z,2.22
2019-03-20T21:13:44.032Z,2.00
2019-03-20T21:16:46.285Z,1.75
2019-03-20T21:19:48.532Z,2.00
2019-03-20T21:23:50.609Z,2.10
2019-03-20T21:28:04.497Z,1.90
2019-03-20T21:31:50.883Z,2.08
2019-03-20T21:35:45.500Z,2.02
2019-03-20T21:38:47.775Z,2.40
2019-03-20T21:42:35.319Z,1.80
2019-03-20T21:46:45.693Z,1.87
2019-03-20T21:49:47.988Z,1.92
2019-03-20T21:52:50.281Z,2.40
2019-03-20T21:56:28.620Z,2.00
2019-03-20T22:00:12.213Z,2.08
2019-03-20T22:03:14.506Z,2.00
2019-03-20T22:07:08.933Z,1.90
2019-03-20T22:11:04.200Z,2.12
2019-03-20T22:14:10.254Z,2.20
2019-03-20T22:18:16.865Z,2.02
2019-03-20T22:21:56.350Z,2.10
2019-03-20T22:26:03.487Z,2.00
2019-03-20T22:29:23.553Z,1.90
2019-03-20T22:33:44.826Z,1.82
2019-03-20T22:36:47.111Z,2.10
2019-03-20T22:40:49.327Z,1.95
2019-03-20T22:44:00.744Z,2.08
2019-03-20T22:48:12.903Z,2.25
2019-03-20T22:51:56.942Z,2.50
2019-03-20T22:56:18.857Z,2.30
2019-03-20T22:59:21.147Z,2.27
2019-03-20T23:02:55.618Z,2.33
2019-03-20T23:05:57.955Z,2.20
2019-03-20T23:09:00.316Z,2.45
2019-03-20T23:12:08.260Z,2.30
2019-03-20T23:15:14.327Z,2.77
2019-03-20T23:18:16.626Z,2.42
2019-03-20T23:21:18.956Z,3.00
2019-03-20T23:24:21.222Z,2.45
2019-03-20T23:27:31.616Z,1.95
2019-03-20T23:30:33.958Z,2.65
2019-03-20T23:33:36.353Z,2.62
2019-03-20T23:36:38.726Z,2.42
2019-03-20T23:39:41.173Z,2.80
2019-03-20T23:42:44.174Z,2.30
2019-03-20T23:45:46.498Z,2.70
2019-03-20T23:49:06.747Z,2.40
2019-03-20T23:52:09.126Z,2.37
2019-03-20T23:55:12.585Z,3.05
2019-03-20T23:58:14.996Z,2.60
